Clinchburg, Virginia
Current Conditions -  °F | °C
As of 7:35 AM on Friday 28 Nov 2014 (Local Time) from KVJI Reporting Station
Scattered Clouds Scattered Clouds  
Wind Chill: 19°   Ceiling: Unl
Heat Index: 28°   Visibility: 10mi
Dew Point: 17°   Wind: 8mph
Humidity: 65%   Direction: 340°NNW
Pressure: 30.32"   Gusts: NA
Location:  36.7675°N, 81.854°W
Report Text: KVJI 281235Z AUTO 34007KT 10SM SCT025 M02/M08 A3032 RMK AO2 T10251082
Loading
Personal Weather Stations






























Interactive Weather Map New forecast layout! Learn more

10-Day Weather Forecast

Advertisements
Track Severe Weather on mobile